Observation data for Northwest San Angelo on 03/13/2018      Previous  Date  Next       Current Mesonet Observations  Soil Data  Daily Summary Page  Observations in Plain Language
KASU 130505Z 06004KT 07/M05 A3025 RMK A01 T00671045  RH  045%=      5-min Rain = 0
KASU 130510Z 05005KT 07/M05 A3025 RMK A01 T00691046  RH  044%=      5-min Rain = 0
KASU 130515Z 06005KT 07/M05 A3025 RMK A01 T00711046  RH  043%=      5-min Rain = 0
KASU 130520Z 06006KT 07/M05 A3025 RMK A01 T00701047  RH  044%=      5-min Rain = 0
KASU 130525Z 06006KT 07/M05 A3025 RMK A01 T00721048  RH  043%=      5-min Rain = 0
KASU 130530Z 06006KT 07/M05 A3025 RMK A01 T00691047  RH  044%=      5-min Rain = 0
KASU 130535Z 06005KT 07/M05 A3025 RMK A01 T00681048  RH  044%=      5-min Rain = 0
KASU 130540Z 06005KT 07/M05 A3025 RMK A01 T00661048  RH  045%=      5-min Rain = 0
KASU 130545Z 06005KT 07/M05 A3025 RMK A01 T00651047  RH  045%=      5-min Rain = 0
KASU 130550Z 07005KT 06/M05 A3025 RMK A01 T00641047  RH  045%=      5-min Rain = 0
KASU 130555Z 07005KT 06/M05 A3025 RMK A01 T00581048  RH  047%=      5-min Rain = 0
KASU 130600Z 07005KT 06/M05 A3025 RMK A01 T00571047  RH  048%=      5-min Rain = 0
KASU 130605Z 06005KT 06/M05 A3025 RMK A01 T00641047  RH  046%=      5-min Rain = 0
KASU 130610Z 06005KT 07/M05 A3025 RMK A01 T00671049  RH  044%=      5-min Rain = 0
KASU 130615Z 06005KT 07/M05 A3025 RMK A01 T00661049  RH  044%=      5-min Rain = 0
KASU 130620Z 06006KT 07/M05 A3024 RMK A01 T00671050  RH  044%=      5-min Rain = 0
KASU 130625Z 05006KT 07/M05 A3024 RMK A01 T00691050  RH  043%=      5-min Rain = 0
KASU 130630Z 06006KT 07/M05 A3024 RMK A01 T00711051  RH  042%=      5-min Rain = 0
KASU 130635Z 05006KT 07/M05 A3024 RMK A01 T00691051  RH  043%=      5-min Rain = 0
KASU 130640Z 06005KT 07/M05 A3024 RMK A01 T00661052  RH  043%=      5-min Rain = 0
KASU 130645Z 06003KT 06/M05 A3024 RMK A01 T00611052  RH  045%=      5-min Rain = 0
KASU 130650Z 06002KT 06/M05 A3024 RMK A01 T00591052  RH  045%=      5-min Rain = 0
KASU 130655Z 02001KT 06/M05 A3024 RMK A01 T00571052  RH  046%=      5-min Rain = 0
KASU 130700Z 20001KT 05/M05 A3024 RMK A01 T00541051  RH  047%=      5-min Rain = 0
KASU 130705Z 18001KT 05/M05 A3024 RMK A01 T00531050  RH  048%=      5-min Rain = 0
KASU 130710Z 10001KT 05/M05 A3024 RMK A01 T00521051  RH  048%=      5-min Rain = 0
KASU 130715Z 22000KT 05/M05 A3024 RMK A01 T00471051  RH  050%=      5-min Rain = 0
KASU 130720Z 19001KT 04/M05 A3024 RMK A01 T00411050  RH  052%=      5-min Rain = 0
KASU 130725Z 16001KT 04/M05 A3024 RMK A01 T00371049  RH  054%=      5-min Rain = 0
KASU 130730Z 18002KT 04/M05 A3024 RMK A01 T00361048  RH  055%=      5-min Rain = 0
KASU 130735Z 18002KT 04/M05 A3024 RMK A01 T00371047  RH  055%=      5-min Rain = 0
KASU 130740Z 16002KT 04/M05 A3024 RMK A01 T00401047  RH  054%=      5-min Rain = 0
KASU 130745Z 14001KT 04/M05 A3024 RMK A01 T00421047  RH  053%=      5-min Rain = 0
KASU 130750Z 00000KT 04/M05 A3023 RMK A01 T00431048  RH  052%=      5-min Rain = 0
KASU 130755Z 09000KT 04/M05 A3023 RMK A01 T00401047  RH  054%=      5-min Rain = 0
KASU 130800Z 08000KT 04/M05 A3023 RMK A01 T00381048  RH  054%=      5-min Rain = 0
KASU 130805Z 08001KT 04/M05 A3023 RMK A01 T00371047  RH  055%=      5-min Rain = 0
KASU 130810Z 10001KT 03/M05 A3023 RMK A01 T00331047  RH  056%=      5-min Rain = 0
KASU 130815Z 07000KT 03/M05 A3023 RMK A01 T00321046  RH  057%=      5-min Rain = 0
KASU 130820Z 07001KT 04/M05 A3023 RMK A01 T00351047  RH  055%=      5-min Rain = 0
KASU 130825Z 06001KT 04/M05 A3023 RMK A01 T00371047  RH  054%=      5-min Rain = 0
KASU 130830Z 05002KT 04/M05 A3023 RMK A01 T00401048  RH  053%=      5-min Rain = 0
KASU 130835Z 06002KT 03/M05 A3022 RMK A01 T00341049  RH  055%=      5-min Rain = 0
KASU 130840Z 07002KT 03/M05 A3022 RMK A01 T00331048  RH  056%=      5-min Rain = 0
KASU 130845Z 07003KT 03/M05 A3022 RMK A01 T00341048  RH  055%=      5-min Rain = 0
KASU 130850Z 07004KT 04/M05 A3022 RMK A01 T00351046  RH  056%=      5-min Rain = 0
KASU 130855Z 07004KT 04/M04 A3022 RMK A01 T00401043  RH  055%=      5-min Rain = 0
KASU 130900Z 06004KT 04/M05 A3022 RMK A01 T00441047  RH  053%=      5-min Rain = 0
KASU 130905Z 05003KT 04/M05 A3022 RMK A01 T00421048  RH  052%=      5-min Rain = 0
KASU 130910Z 05003KT 04/M05 A3022 RMK A01 T00441047  RH  052%=      5-min Rain = 0
KASU 130915Z 06004KT 05/M05 A3022 RMK A01 T00461046  RH  052%=      5-min Rain = 0
KASU 130920Z 07004KT 05/M05 A3022 RMK A01 T00451048  RH  051%=      5-min Rain = 0
KASU 130925Z 08004KT 04/M05 A3022 RMK A01 T00401050  RH  052%=      5-min Rain = 0
KASU 130930Z 09003KT 04/M05 A3022 RMK A01 T00381049  RH  054%=      5-min Rain = 0
KASU 130935Z 11002KT 04/M05 A3022 RMK A01 T00351048  RH  055%=      5-min Rain = 0
KASU 130940Z 09002KT 03/M05 A3022 RMK A01 T00341047  RH  056%=      5-min Rain = 0
KASU 130945Z 07002KT 03/M05 A3023 RMK A01 T00331047  RH  056%=      5-min Rain = 0
KASU 130950Z 07002KT 04/M05 A3023 RMK A01 T00361048  RH  055%=      5-min Rain = 0
KASU 130955Z 07002KT 03/M05 A3023 RMK A01 T00301050  RH  056%=      5-min Rain = 0
KASU 131000Z 07002KT 02/M05 A3023 RMK A01 T00201051  RH  060%=      5-min Rain = 0
KASU 131005Z 06003KT 02/M05 A3023 RMK A01 T00191048  RH  062%=      5-min Rain = 0
KASU 131010Z 05002KT 03/M05 A3023 RMK A01 T00271045  RH  060%=      5-min Rain = 0
KASU 131015Z 04002KT 03/M05 A3023 RMK A01 T00291047  RH  058%=      5-min Rain = 0
KASU 131020Z 05003KT 03/M05 A3023 RMK A01 T00321046  RH  057%=      5-min Rain = 0
KASU 131025Z 06003KT 04/M04 A3023 RMK A01 T00381044  RH  056%=      5-min Rain = 0
KASU 131030Z 05004KT 04/M04 A3023 RMK A01 T00421044  RH  054%=      5-min Rain = 0
KASU 131035Z 05005KT 04/M04 A3023 RMK A01 T00411043  RH  055%=      5-min Rain = 0
KASU 131040Z 06006KT 04/M04 A3023 RMK A01 T00401043  RH  055%=      5-min Rain = 0
KASU 131045Z 06005KT 04/M04 A3023 RMK A01 T00401044  RH  055%=      5-min Rain = 0
KASU 131050Z 06005KT 04/M04 A3023 RMK A01 T00401043  RH  055%=      5-min Rain = 0
KASU 131055Z 06005KT 04/M04 A3023 RMK A01 T00411044  RH  055%=      5-min Rain = 0
KASU 131100Z 06005KT 04/M04 A3023 RMK A01 T00411043  RH  055%=      5-min Rain = 0
KASU 131105Z 06004KT 04/M04 A3024 RMK A01 T00401043  RH  055%=      5-min Rain = 0
KASU 131110Z 07005KT 04/M04 A3024 RMK A01 T00381044  RH  056%=      5-min Rain = 0
KASU 131115Z 07005KT 04/M04 A3024 RMK A01 T00381044  RH  056%=      5-min Rain = 0
KASU 131120Z 07005KT 04/M04 A3024 RMK A01 T00361044  RH  056%=      5-min Rain = 0
KASU 131125Z 07005KT 04/M04 A3024 RMK A01 T00351043  RH  057%=      5-min Rain = 0
KASU 131130Z 07004KT 04/M04 A3025 RMK A01 T00351043  RH  057%=      5-min Rain = 0
KASU 131135Z 07004KT 03/M04 A3025 RMK A01 T00341043  RH  057%=      5-min Rain = 0
KASU 131140Z 07004KT 03/M04 A3025 RMK A01 T00341043  RH  058%=      5-min Rain = 0
KASU 131145Z 08003KT 03/M04 A3025 RMK A01 T00331043  RH  058%=      5-min Rain = 0
KASU 131150Z 10002KT 03/M04 A3025 RMK A01 T00321044  RH  058%=      5-min Rain = 0
KASU 131155Z 10002KT 04/M04 A3025 RMK A01 T00381044  RH  056%=      5-min Rain = 0
KASU 131200Z 07003KT 04/M04 A3025 RMK A01 T00381043  RH  056%=      5-min Rain = 0
KASU 131205Z 06003KT 04/M04 A3025 RMK A01 T00411042  RH  055%=      5-min Rain = 0
KASU 131210Z 05002KT 04/M04 A3026 RMK A01 T00421042  RH  055%=      5-min Rain = 0
KASU 131215Z 07002KT 04/M04 A3026 RMK A01 T00391044  RH  055%=      5-min Rain = 0
KASU 131220Z 08003KT 04/M04 A3026 RMK A01 T00361043  RH  057%=      5-min Rain = 0
KASU 131225Z 08003KT 04/M04 A3027 RMK A01 T00351041  RH  058%=      5-min Rain = 0
KASU 131230Z 07003KT 03/M04 A3026 RMK A01 T00301044  RH  059%=      5-min Rain = 0
KASU 131235Z 07003KT 03/M05 A3026 RMK A01 T00261045  RH  060%=      5-min Rain = 0
KASU 131240Z 07004KT 03/M04 A3027 RMK A01 T00251044  RH  061%=      5-min Rain = 0
KASU 131245Z 07004KT 03/M04 A3027 RMK A01 T00271041  RH  062%=      5-min Rain = 0
KASU 131250Z 07004KT 03/M04 A3027 RMK A01 T00301040  RH  061%=      5-min Rain = 0
KASU 131255Z 08003KT 03/M04 A3027 RMK A01 T00321041  RH  059%=      5-min Rain = 0
KASU 131300Z 09003KT 03/M04 A3027 RMK A01 T00281043  RH  060%=      5-min Rain = 0
KASU 131305Z 07003KT 03/M04 A3027 RMK A01 T00291042  RH  060%=      5-min Rain = 0
KASU 131310Z 07003KT 03/M04 A3027 RMK A01 T00321039  RH  060%=      5-min Rain = 0
KASU 131315Z 07003KT 04/M04 A3028 RMK A01 T00351040  RH  058%=      5-min Rain = 0
KASU 131320Z 07003KT 04/M04 A3028 RMK A01 T00411039  RH  057%=      5-min Rain = 0
KASU 131325Z 08002KT 05/M04 A3028 RMK A01 T00461038  RH  055%=      5-min Rain = 0
KASU 131330Z 07002KT 05/M03 A3028 RMK A01 T00531033  RH  055%=      5-min Rain = 0
KASU 131335Z 07002KT 06/M03 A3029 RMK A01 T00601027  RH  054%=      5-min Rain = 0
KASU 131340Z 07002KT 06/M03 A3029 RMK A01 T00611029  RH  053%=      5-min Rain = 0
KASU 131345Z 07002KT 06/M03 A3029 RMK A01 T00641028  RH  052%=      5-min Rain = 0
KASU 131350Z 07004KT 07/M03 A303 RMK A01 T00661030  RH  051%=      5-min Rain = 0
KASU 131355Z 07005KT 07/M03 A303 RMK A01 T00681030  RH  050%=      5-min Rain = 0
KASU 131400Z 07004KT 07/M03 A303 RMK A01 T00711029  RH  049%=      5-min Rain = 0
KASU 131405Z 08005KT 08/M03 A303 RMK A01 T00761029  RH  048%=      5-min Rain = 0
KASU 131410Z 08005KT 08/M03 A303 RMK A01 T00781029  RH  047%=      5-min Rain = 0
KASU 131415Z 08006KT 08/M03 A303 RMK A01 T00791030  RH  047%=      5-min Rain = 0
KASU 131420Z 09006KT 08/M03 A303 RMK A01 T00811029  RH  046%=      5-min Rain = 0
KASU 131425Z 08006KT 09/M03 A303 RMK A01 T00851027  RH  046%=      5-min Rain = 0
KASU 131430Z 08006KT 09/M03 A303 RMK A01 T00881027  RH  045%=      5-min Rain = 0
KASU 131435Z 08007KT 09/M03 A303 RMK A01 T00921027  RH  044%=      5-min Rain = 0
KASU 131440Z 08007KT 09/M03 A303 RMK A01 T00941027  RH  043%=      5-min Rain = 0
KASU 131445Z 08006KT 10/M03 A3031 RMK A01 T00981026  RH  042%=      5-min Rain = 0
KASU 131450Z 10006KT 10/M03 A3031 RMK A01 T01011028  RH  041%=      5-min Rain = 0
KASU 131455Z 10005KT 10/M03 A3031 RMK A01 T01031028  RH  040%=      5-min Rain = 0
KASU 131500Z 10005KT 11/M03 A3031 RMK A01 T01071027  RH  039%=      5-min Rain = 0
KASU 131505Z 10005KT 11/M03 A3031 RMK A01 T01091026  RH  039%=      5-min Rain = 0
KASU 131510Z 10005KT 11/M03 A3031 RMK A01 T01111027  RH  038%=      5-min Rain = 0
KASU 131515Z 10006KT 11/M02 A3031 RMK A01 T01131024  RH  039%=      5-min Rain = 0
KASU 131520Z 10006KT 12/M02 A3032 RMK A01 T01161024  RH  038%=      5-min Rain = 0
KASU 131525Z 09006KT 12/M02 A3032 RMK A01 T01181023  RH  038%=      5-min Rain = 0
KASU 131530Z 09006KT 12/M02 A3032 RMK A01 T01201023  RH  037%=      5-min Rain = 0
KASU 131535Z 08005KT 12/M02 A3032 RMK A01 T01221023  RH  037%=      5-min Rain = 0
KASU 131540Z 08006KT 12/M02 A3032 RMK A01 T01231023  RH  036%=      5-min Rain = 0
KASU 131545Z 08006KT 13/M02 A3032 RMK A01 T01261022  RH  036%=      5-min Rain = 0
KASU 131550Z 07006KT 13/M02 A3032 RMK A01 T01281024  RH  035%=      5-min Rain = 0
KASU 131555Z 08006KT 13/M02 A3032 RMK A01 T01291023  RH  035%=      5-min Rain = 0
KASU 131600Z 09006KT 13/M02 A3033 RMK A01 T01331022  RH  034%=      5-min Rain = 0
KASU 131605Z 08006KT 13/M02 A3033 RMK A01 T01341023  RH  034%=      5-min Rain = 0
KASU 131610Z 09006KT 14/M02 A3033 RMK A01 T01381022  RH  033%=      5-min Rain = 0
KASU 131615Z 09007KT 14/M02 A3033 RMK A01 T01391022  RH  033%=      5-min Rain = 0
KASU 131620Z 10006KT 14/M02 A3033 RMK A01 T01401022  RH  033%=      5-min Rain = 0
KASU 131625Z 10007KT 15/M02 A3033 RMK A01 T01471020  RH  032%=      5-min Rain = 0
KASU 131630Z 09007KT 15/M02 A3032 RMK A01 T01471018  RH  032%=      5-min Rain = 0
KASU 131635Z 09007KT 15/M02 A3032 RMK A01 T01481021  RH  032%=      5-min Rain = 0
KASU 131640Z 10006G11KT 15/M02 A3032 RMK A01 T01481021  RH  031%=      5-min Rain = 0
KASU 131645Z 10007KT 16/M02 A3032 RMK A01 T01551019  RH  030%=      5-min Rain = 0
KASU 131650Z 10006KT 15/M02 A3032 RMK A01 T01521021  RH  031%=      5-min Rain = 0
KASU 131655Z 10007KT 15/M02 A3032 RMK A01 T01531023  RH  030%=      5-min Rain = 0
KASU 131700Z 08006G11KT 15/M02 A3031 RMK A01 T01531021  RH  030%=      5-min Rain = 0
KASU 131705Z 08007KT 16/M02 A3031 RMK A01 T01551020  RH  030%=      5-min Rain = 0
KASU 131710Z 11006KT 16/M02 A3032 RMK A01 T01571022  RH  029%=      5-min Rain = 0
KASU 131715Z 08005KT 16/M03 A3032 RMK A01 T01571025  RH  029%=      5-min Rain = 0
KASU 131720Z 08006KT 16/M02 A3032 RMK A01 T01551024  RH  029%=      5-min Rain = 0
KASU 131725Z 05005KT 16/M03 A3031 RMK A01 T01561027  RH  029%=      5-min Rain = 0
KASU 131730Z 11007KT 16/M02 A303 RMK A01 T01611024  RH  028%=      5-min Rain = 0
KASU 131735Z 09005KT 16/M03 A303 RMK A01 T01631026  RH  028%=      5-min Rain = 0
KASU 131740Z 08004KT 16/M03 A303 RMK A01 T01631030  RH  027%=      5-min Rain = 0
KASU 131745Z 08006KT 17/M03 A303 RMK A01 T01661026  RH  027%=      5-min Rain = 0
KASU 131750Z 10007KT 17/M03 A303 RMK A01 T01671026  RH  027%=      5-min Rain = 0
KASU 131755Z 11004KT 17/M03 A303 RMK A01 T01661029  RH  026%=      5-min Rain = 0
KASU 131800Z 12003G8KT 17/M03 A303 RMK A01 T01671029  RH  026%=      5-min Rain = 0
KASU 131805Z 11007KT 17/M03 A3029 RMK A01 T01721032  RH  025%=      5-min Rain = 0
KASU 131810Z 11007G14KT 17/M03 A3029 RMK A01 T01681031  RH  026%=      5-min Rain = 0
KASU 131815Z 10006G13KT 17/M03 A3029 RMK A01 T01711031  RH  025%=      5-min Rain = 0
KASU 131820Z 10009G15KT 18/M03 A3029 RMK A01 T01761032  RH  024%=      5-min Rain = 0
KASU 131825Z 12007G13KT 17/M03 A3029 RMK A01 T01741033  RH  024%=      5-min Rain = 0
KASU 131830Z 09010G15KT 18/M03 A3028 RMK A01 T01791033  RH  024%=      5-min Rain = 0
KASU 131835Z 07007G13KT 18/M03 A3028 RMK A01 T01761034  RH  024%=      5-min Rain = 0
KASU 131840Z 08009G15KT 18/M04 A3028 RMK A01 T01781036  RH  023%=      5-min Rain = 0
KASU 131845Z 13009KT 18/M04 A3028 RMK A01 T01821035  RH  023%=      5-min Rain = 0
KASU 131850Z 10007KT 18/M04 A3028 RMK A01 T01821037  RH  023%=      5-min Rain = 0
KASU 131855Z 09008KT 18/M04 A3028 RMK A01 T01791039  RH  023%=      5-min Rain = 0
KASU 131900Z 11009KT 18/M04 A3027 RMK A01 T01841036  RH  022%=      5-min Rain = 0
KASU 131905Z 07007G14KT 18/M05 A3027 RMK A01 T01811045  RH  021%=      5-min Rain = 0
KASU 131910Z 08008KT 18/M04 A3027 RMK A01 T01831042  RH  022%=      5-min Rain = 0
KASU 131915Z 08008KT 18/M04 A3027 RMK A01 T01811043  RH  022%=      5-min Rain = 0
KASU 131920Z 10009G14KT 19/M04 A3026 RMK A01 T01871044  RH  021%=      5-min Rain = 0
KASU 131925Z 09005G10KT 18/M05 A3026 RMK A01 T01841046  RH  021%=      5-min Rain = 0
KASU 131930Z 06010KT 19/M04 A3026 RMK A01 T01851042  RH  021%=      5-min Rain = 0
KASU 131935Z 11009KT 19/M05 A3026 RMK A01 T01871048  RH  020%=      5-min Rain = 0
KASU 131940Z 13008G13KT 19/M04 A3025 RMK A01 T01911043  RH  020%=      5-min Rain = 0
KASU 131945Z 09007G17KT 19/M04 A3025 RMK A01 T01941038  RH  021%=      5-min Rain = 0
KASU 131950Z 06012KT 19/M05 A3025 RMK A01 T01861045  RH  021%=      5-min Rain = 0
KASU 131955Z 06008KT 19/M05 A3025 RMK A01 T01861045  RH  021%=      5-min Rain = 0
KASU 132000Z 08007KT 19/M04 A3025 RMK A01 T01861042  RH  021%=      5-min Rain = 0
KASU 132005Z 06009KT 19/M04 A3025 RMK A01 T01891041  RH  021%=      5-min Rain = 0
KASU 132010Z 09010G15KT 19/M05 A3025 RMK A01 T01901045  RH  020%=      5-min Rain = 0
KASU 132015Z 12009G14KT 19/M05 A3025 RMK A01 T01881047  RH  020%=      5-min Rain = 0
KASU 132020Z 11007KT 19/M04 A3025 RMK A01 T01871044  RH  021%=      5-min Rain = 0
KASU 132025Z 08010G17KT 19/M04 A3025 RMK A01 T01901043  RH  020%=      5-min Rain = 0
KASU 132030Z 10012KT 19/M05 A3024 RMK A01 T01921051  RH  019%=      5-min Rain = 0
KASU 132035Z 09010G15KT 19/M05 A3024 RMK A01 T01921046  RH  020%=      5-min Rain = 0
KASU 132040Z 10009G14KT 19/M05 A3024 RMK A01 T01911049  RH  019%=      5-min Rain = 0
KASU 132045Z 10006G13KT 19/M05 A3024 RMK A01 T01881045  RH  020%=      5-min Rain = 0
KASU 132050Z 10011KT 19/M04 A3024 RMK A01 T01891043  RH  021%=      5-min Rain = 0
KASU 132055Z 11007G14KT 19/M04 A3024 RMK A01 T01881043  RH  021%=      5-min Rain = 0
KASU 132100Z 13007KT 19/M04 A3024 RMK A01 T01911044  RH  020%=      5-min Rain = 0
KASU 132105Z 11010KT 19/M04 A3024 RMK A01 T01931044  RH  020%=      5-min Rain = 0
KASU 132110Z 09007G15KT 19/M05 A3023 RMK A01 T01871045  RH  021%=      5-min Rain = 0
KASU 132115Z 10011KT 19/M05 A3023 RMK A01 T01891050  RH  020%=      5-min Rain = 0
KASU 132120Z 10009G14KT 19/M05 A3023 RMK A01 T01871045  RH  021%=      5-min Rain = 0
KASU 132125Z 10008KT 19/M04 A3023 RMK A01 T01881044  RH  021%=      5-min Rain = 0
KASU 132130Z 10007G12KT 19/M04 A3023 RMK A01 T01911041  RH  021%=      5-min Rain = 0
KASU 132135Z 10009G19KT 19/M04 A3023 RMK A01 T01911043  RH  020%=      5-min Rain = 0
KASU 132140Z 07011G17KT 19/M05 A3022 RMK A01 T01931046  RH  020%=      5-min Rain = 0
KASU 132145Z 08009G14KT 19/M05 A3022 RMK A01 T01931048  RH  019%=      5-min Rain = 0
KASU 132150Z 07009G14KT 19/M05 A3022 RMK A01 T01931049  RH  019%=      5-min Rain = 0
KASU 132155Z 07008G14KT 19/M05 A3022 RMK A01 T01941050  RH  019%=      5-min Rain = 0
KASU 132200Z 07012KT 19/M05 A3022 RMK A01 T01931051  RH  019%=      5-min Rain = 0
KASU 132205Z 05009KT 19/M05 A3022 RMK A01 T01911052  RH  019%=      5-min Rain = 0
KASU 132210Z 06006KT 19/M05 A3022 RMK A01 T01921051  RH  019%=      5-min Rain = 0
KASU 132215Z 07009G17KT 19/M05 A3022 RMK A01 T01911051  RH  019%=      5-min Rain = 0
KASU 132220Z 08010KT 19/M05 A3022 RMK A01 T01941054  RH  018%=      5-min Rain = 0
KASU 132225Z 09006G13KT 19/M06 A3022 RMK A01 T01881061  RH  018%=      5-min Rain = 0
KASU 132230Z 10009G15KT 19/M06 A3022 RMK A01 T01881060  RH  018%=      5-min Rain = 0
KASU 132235Z 08011KT 19/M06 A3021 RMK A01 T01881055  RH  019%=      5-min Rain = 0
KASU 132240Z 08008KT 19/M06 A3021 RMK A01 T01871058  RH  019%=      5-min Rain = 0
KASU 132245Z 08008G13KT 18/M06 A3021 RMK A01 T01831061  RH  019%=      5-min Rain = 0
KASU 132250Z 08009KT 19/M06 A3021 RMK A01 T01881055  RH  019%=      5-min Rain = 0
KASU 132255Z 08009KT 18/M05 A3021 RMK A01 T01841052  RH  020%=      5-min Rain = 0
KASU 132300Z 07007G12KT 18/M05 A302 RMK A01 T01771054  RH  021%=      5-min Rain = 0
KASU 132305Z 09011G16KT 18/M06 A3021 RMK A01 T01821055  RH  020%=      5-min Rain = 0
KASU 132310Z 08012KT 19/M05 A3021 RMK A01 T01861054  RH  019%=      5-min Rain = 0
KASU 132315Z 07009KT 19/M06 A3021 RMK A01 T01851055  RH  019%=      5-min Rain = 0
KASU 132320Z 08010G15KT 18/M06 A3021 RMK A01 T01841057  RH  019%=      5-min Rain = 0
KASU 132325Z 09011KT 18/M06 A3021 RMK A01 T01841058  RH  019%=      5-min Rain = 0
KASU 132330Z 08008KT 18/M06 A3021 RMK A01 T01841057  RH  019%=      5-min Rain = 0
KASU 132335Z 06009KT 18/M06 A3022 RMK A01 T01831055  RH  019%=      5-min Rain = 0
KASU 132340Z 08009KT 18/M06 A3022 RMK A01 T01841057  RH  019%=      5-min Rain = 0
KASU 132345Z 06011KT 18/M06 A3021 RMK A01 T01811059  RH  019%=      5-min Rain = 0
KASU 132350Z 06008KT 18/M06 A3021 RMK A01 T01791061  RH  019%=      5-min Rain = 0
KASU 132355Z 08008KT 18/M06 A3022 RMK A01 T01801058  RH  019%=      5-min Rain = 0
KASU 140000Z 08009KT 18/M06 A3022 RMK A01 T01781061  RH  019%=      5-min Rain = 0
KASU 140005Z 06007KT 18/M06 A3022 RMK A01 T01761056  RH  020%=      5-min Rain = 0
KASU 140010Z 08008KT 18/M05 A3022 RMK A01 T01751054  RH  021%=      5-min Rain = 0
KASU 140015Z 09009KT 17/M06 A3022 RMK A01 T01731059  RH  020%=      5-min Rain = 0
KASU 140020Z 08007KT 17/M06 A3023 RMK A01 T01711056  RH  021%=      5-min Rain = 0
KASU 140025Z 07007KT 17/M06 A3023 RMK A01 T01691057  RH  021%=      5-min Rain = 0
KASU 140030Z 07006KT 17/M06 A3022 RMK A01 T01661055  RH  022%=      5-min Rain = 0
KASU 140035Z 07007KT 16/M06 A3022 RMK A01 T01641056  RH  022%=      5-min Rain = 0
KASU 140040Z 08007KT 16/M06 A3022 RMK A01 T01611057  RH  022%=      5-min Rain = 0
KASU 140045Z 06006KT 16/M06 A3023 RMK A01 T01561057  RH  023%=      5-min Rain = 0
KASU 140050Z 05007KT 16/M06 A3023 RMK A01 T01571058  RH  023%=      5-min Rain = 0
KASU 140055Z 06007KT 16/M06 A3023 RMK A01 T01561058  RH  023%=      5-min Rain = 0
KASU 140100Z 06005KT 15/M06 A3024 RMK A01 T01511058  RH  023%=      5-min Rain = 0
KASU 140105Z 06005KT 15/M06 A3024 RMK A01 T01461057  RH  024%=      5-min Rain = 0
KASU 140110Z 06006KT 14/M06 A3024 RMK A01 T01431057  RH  025%=      5-min Rain = 0
KASU 140115Z 06006KT 14/M06 A3024 RMK A01 T01411057  RH  025%=      5-min Rain = 0
KASU 140120Z 06005KT 14/M06 A3025 RMK A01 T01381057  RH  026%=      5-min Rain = 0
KASU 140125Z 06005KT 14/M06 A3025 RMK A01 T01351057  RH  026%=      5-min Rain = 0
KASU 140130Z 06005KT 13/M06 A3025 RMK A01 T01311056  RH  027%=      5-min Rain = 0
KASU 140135Z 05005KT 13/M06 A3025 RMK A01 T01301057  RH  027%=      5-min Rain = 0
KASU 140140Z 05004KT 13/M06 A3026 RMK A01 T01311057  RH  027%=      5-min Rain = 0
KASU 140145Z 05005KT 13/M06 A3026 RMK A01 T01301058  RH  027%=      5-min Rain = 0
KASU 140150Z 05004KT 13/M06 A3026 RMK A01 T01261058  RH  028%=      5-min Rain = 0
KASU 140155Z 06005KT 13/M06 A3026 RMK A01 T01261057  RH  028%=      5-min Rain = 0
KASU 140200Z 06006KT 12/M06 A3026 RMK A01 T01201057  RH  029%=      5-min Rain = 0
KASU 140205Z 06006KT 12/M06 A3026 RMK A01 T01181056  RH  029%=      5-min Rain = 0
KASU 140210Z 06006KT 12/M06 A3026 RMK A01 T01161056  RH  030%=      5-min Rain = 0
KASU 140215Z 05005KT 11/M06 A3027 RMK A01 T01131055  RH  031%=      5-min Rain = 0
KASU 140220Z 06006KT 11/M05 A3027 RMK A01 T01121054  RH  031%=      5-min Rain = 0
KASU 140225Z 06006KT 11/M05 A3027 RMK A01 T01091054  RH  032%=      5-min Rain = 0
KASU 140230Z 06006KT 11/M05 A3027 RMK A01 T01091054  RH  032%=      5-min Rain = 0
KASU 140235Z 05006KT 11/M05 A3027 RMK A01 T01121054  RH  031%=      5-min Rain = 0
KASU 140240Z 05007KT 11/M05 A3027 RMK A01 T01141054  RH  031%=      5-min Rain = 0
KASU 140245Z 05007KT 12/M05 A3028 RMK A01 T01181054  RH  030%=      5-min Rain = 0
KASU 140250Z 05007KT 12/M06 A3028 RMK A01 T01211055  RH  029%=      5-min Rain = 0
KASU 140255Z 05008KT 12/M06 A3028 RMK A01 T01231056  RH  029%=      5-min Rain = 0
KASU 140300Z 06008KT 12/M06 A3028 RMK A01 T01221056  RH  029%=      5-min Rain = 0
KASU 140305Z 06008KT 12/M06 A3029 RMK A01 T01211055  RH  029%=      5-min Rain = 0
KASU 140310Z 05009KT 12/M06 A3029 RMK A01 T01221056  RH  029%=      5-min Rain = 0
KASU 140315Z 06009KT 12/M06 A3029 RMK A01 T01231056  RH  029%=      5-min Rain = 0
KASU 140320Z 05008KT 12/M06 A3029 RMK A01 T01211056  RH  029%=      5-min Rain = 0
KASU 140325Z 06008KT 12/M06 A3029 RMK A01 T01191056  RH  029%=      5-min Rain = 0
KASU 140330Z 06008KT 12/M06 A3029 RMK A01 T01181055  RH  030%=      5-min Rain = 0
KASU 140335Z 06008KT 12/M06 A3029 RMK A01 T01171055  RH  030%=      5-min Rain = 0
KASU 140340Z 06008KT 12/M05 A303 RMK A01 T01161054  RH  030%=      5-min Rain = 0
KASU 140345Z 05008KT 12/M05 A303 RMK A01 T01151053  RH  031%=      5-min Rain = 0
KASU 140350Z 06008KT 12/M05 A303 RMK A01 T01151053  RH  031%=      5-min Rain = 0
KASU 140355Z 06009KT 12/M05 A303 RMK A01 T01151053  RH  031%=      5-min Rain = 0
KASU 140400Z 06008KT 12/M05 A303 RMK A01 T01151052  RH  031%=      5-min Rain = 0
KASU 140405Z 06008KT 11/M05 A303 RMK A01 T01141052  RH  031%=      5-min Rain = 0
KASU 140410Z 06008KT 11/M05 A303 RMK A01 T01121051  RH  032%=      5-min Rain = 0
KASU 140415Z 06009KT 11/M05 A303 RMK A01 T01121051  RH  032%=      5-min Rain = 0
KASU 140420Z 06009KT 11/M05 A303 RMK A01 T01121051  RH  032%=      5-min Rain = 0
KASU 140425Z 05009KT 11/M05 A303 RMK A01 T01101051  RH  032%=      5-min Rain = 0
KASU 140430Z 05009KT 11/M05 A303 RMK A01 T01101051  RH  032%=      5-min Rain = 0
KASU 140435Z 06009KT 11/M05 A303 RMK A01 T01101051  RH  032%=      5-min Rain = 0
KASU 140440Z 06009KT 11/M05 A3029 RMK A01 T01081052  RH  033%=      5-min Rain = 0
KASU 140445Z 06008KT 11/M05 A303 RMK A01 T01071052  RH  033%=      5-min Rain = 0
KASU 140450Z 06008KT 11/M05 A303 RMK A01 T01071053  RH  033%=      5-min Rain = 0
KASU 140455Z 06009KT 11/M05 A303 RMK A01 T01071054  RH  032%=      5-min Rain = 0
KASU 140500Z 07008KT 11/M05 A303 RMK A01 T01061054  RH  032%=      5-min Rain = 0

Page generated in 0.0305 seconds.